Time;durP1;ratioP1;P1;durP2;ratioP2;P2;SDS_P1;SDS_P2;PMS_P1;PMS_P2;Temp;Humidity;BMP_temperature;BMP_pressure;BME280_temperature;BME280_humidity;BME280_pressure;Samples;Min_cycle;Max_cycle;Signal;HPM_P1;HPM_P2
2023/06/10 00:00:14;;;;;;;2.60;2.30;;;;;;;14.55;93.05;95264.50;106671;1275;22511;-74
2023/06/10 00:03:03;;;;;;;3.00;2.50;;;;;;;14.66;92.95;95262.48;106630;1275;22511;-74
2023/06/10 00:05:32;;;;;;;4.80;2.90;;;;;;;14.59;91.99;95262.04;106732;1275;25210;-73
2023/06/10 00:08:06;;;;;;;2.80;2.20;;;;;;;14.49;91.96;95265.75;106699;1275;22517;-74
2023/06/10 00:10:36;;;;;;;3.80;2.50;;;;;;;14.46;92.34;95263.05;106719;1275;22520;-74
2023/06/10 00:13:08;;;;;;;5.60;3.00;;;;;;;14.46;92.42;95259.67;106738;1275;23005;-74
2023/06/10 00:15:37;;;;;;;7.40;3.10;;;;;;;14.43;92.47;95259.27;106690;1275;22572;-74
2023/06/10 00:18:05;;;;;;;4.80;3.50;;;;;;;14.35;92.49;95256.58;106735;1275;22547;-74
2023/06/10 00:20:35;;;;;;;8.60;3.60;;;;;;;14.33;92.94;95257.89;106806;1275;22518;-74
2023/06/10 00:23:06;;;;;;;5.30;3.10;;;;;;;14.32;93.01;95256.17;106829;1275;22520;-74
2023/06/10 00:25:35;;;;;;;5.60;3.40;;;;;;;14.31;93.26;95256.00;106952;1275;25255;-74
2023/06/10 00:28:03;;;;;;;3.90;3.50;;;;;;;14.32;93.25;95257.24;106688;1275;22524;-74
2023/06/10 00:30:32;;;;;;;7.00;3.50;;;;;;;14.27;93.33;95254.23;107038;1275;24193;-74
2023/06/10 00:33:00;;;;;;;5.10;3.20;;;;;;;14.25;93.52;95252.02;106786;1275;22515;-74
2023/06/10 00:35:29;;;;;;;5.00;3.20;;;;;;;14.22;93.44;95254.41;106685;1275;22514;-73
2023/06/10 00:37:57;;;;;;;5.40;3.70;;;;;;;14.20;93.30;95253.77;106792;1275;25462;-74
2023/06/10 00:40:25;;;;;;;5.90;3.40;;;;;;;14.18;93.31;95254.77;106903;1275;22520;-74
2023/06/10 00:42:53;;;;;;;6.60;3.10;;;;;;;14.13;93.24;95256.35;106818;1275;25402;-72
2023/06/10 00:45:22;;;;;;;5.30;3.20;;;;;;;14.09;93.41;95250.13;106737;1275;25322;-74
2023/06/10 00:47:50;;;;;;;4.00;3.10;;;;;;;14.08;93.75;95252.83;106721;1275;22530;-74
2023/06/10 00:50:19;;;;;;;9.20;4.30;;;;;;;14.12;94.32;95253.02;106782;1257;23947;-73
2023/06/10 00:52:48;;;;;;;6.10;3.30;;;;;;;14.16;94.30;95254.65;106712;1275;25265;-74
2023/06/10 00:55:17;;;;;;;4.70;3.10;;;;;;;14.14;94.10;95253.12;106604;1275;25482;-74
2023/06/10 00:57:48;;;;;;;3.00;2.70;;;;;;;14.18;94.45;95250.83;106748;1275;25346;-73
2023/06/10 01:00:35;;;;;;;5.80;3.00;;;;;;;14.26;94.72;95246.46;106763;1275;22515;-74
2023/06/10 01:03:23;;;;;;;3.40;2.70;;;;;;;14.32;94.15;95243.44;106793;1275;22519;-74
2023/06/10 01:06:29;;;;;;;5.80;2.60;;;;;;;14.30;93.83;95244.73;106858;1275;22514;-74
2023/06/10 01:09:02;;;;;;;5.40;2.80;;;;;;;14.24;93.54;95246.54;106971;1253;23868;-74
2023/06/10 01:11:40;;;;;;;2.40;2.10;;;;;;;14.20;93.26;95252.20;106675;1275;22518;-75
2023/06/10 01:14:09;;;;;;;4.00;2.30;;;;;;;14.16;93.19;95247.92;106711;1275;22528;-74
2023/06/10 01:16:40;;;;;;;6.10;2.40;;;;;;;14.14;93.61;95245.02;106697;1275;24199;-74
2023/06/10 01:19:12;;;;;;;4.40;2.50;;;;;;;14.18;94.23;95245.89;106704;1275;22527;-74
2023/06/10 01:21:41;;;;;;;2.50;2.30;;;;;;;14.16;93.51;95245.80;106753;1275;22517;-74
2023/06/10 01:24:10;;;;;;;2.50;2.20;;;;;;;14.14;93.80;95244.81;106695;1275;25430;-74
2023/06/10 01:26:42;;;;;;;7.10;2.70;;;;;;;14.13;93.65;95245.58;106741;1275;25484;-74
2023/06/10 01:29:28;;;;;;;3.50;3.00;;;;;;;14.09;94.06;95246.23;106680;1275;22559;-74
2023/06/10 01:32:04;;;;;;;4.00;2.80;;;;;;;14.07;93.74;95246.69;106638;1275;24223;-74
2023/06/10 01:34:33;;;;;;;3.40;2.20;;;;;;;14.03;93.93;95250.52;106644;1275;24188;-74
2023/06/10 01:37:03;;;;;;;5.60;2.50;;;;;;;14.10;94.81;95249.05;106157;1275;730323;-74
2023/06/10 01:39:32;;;;;;;4.60;2.50;;;;;;;14.11;94.47;95245.30;106671;1275;22522;-74
2023/06/10 01:42:02;;;;;;;10.40;2.50;;;;;;;14.10;94.16;95245.88;106601;1275;25561;-74
2023/06/10 01:44:31;;;;;;;3.20;2.70;;;;;;;14.14;94.75;95244.64;106673;1275;24211;-74
2023/06/10 01:46:59;;;;;;;6.40;2.70;;;;;;;14.24;94.99;95245.12;106747;1275;22532;-74
2023/06/10 01:49:28;;;;;;;6.80;2.50;;;;;;;14.25;93.84;95243.48;107052;1275;22535;-74
2023/06/10 01:51:56;;;;;;;4.50;2.10;;;;;;;14.17;93.21;95243.81;106656;1275;22549;-74
2023/06/10 01:54:24;;;;;;;6.90;2.10;;;;;;;14.11;93.22;95243.33;106571;1275;25562;-74
2023/06/10 01:56:53;;;;;;;3.20;2.10;;;;;;;14.17;94.16;95246.98;106654;1275;22523;-74
2023/06/10 01:59:21;;;;;;;7.30;2.70;;;;;;;14.23;94.23;95244.13;106659;1256;23676;-74
2023/06/10 02:01:49;;;;;;;2.40;2.10;;;;;;;14.25;93.79;95241.92;106675;1275;25648;-74
2023/06/10 02:04:17;;;;;;;16.00;2.70;;;;;;;14.17;92.83;95247.36;106985;1275;22560;-74
2023/06/10 02:06:45;;;;;;;4.30;2.20;;;;;;;14.06;92.54;95250.95;106669;1275;22528;-75
2023/06/10 02:09:13;;;;;;;3.50;2.30;;;;;;;13.97;92.81;95253.94;106699;1275;22522;-74
2023/06/10 02:11:41;;;;;;;7.50;2.20;;;;;;;13.91;92.98;95253.83;106709;1275;22542;-74
2023/06/10 02:14:10;;;;;;;7.30;2.90;;;;;;;13.88;93.57;95249.68;106661;1270;22517;-74
2023/06/10 02:16:39;;;;;;;6.00;2.70;;;;;;;13.87;93.64;95252.55;106626;1275;22645;-75
2023/06/10 02:19:07;;;;;;;7.40;2.50;;;;;;;13.83;93.54;95252.70;106634;1275;22537;-74
2023/06/10 02:21:35;;;;;;;3.70;1.80;;;;;;;13.84;93.62;95254.76;106585;1275;24246;-74
2023/06/10 02:24:04;;;;;;;3.90;2.20;;;;;;;13.83;93.22;95252.34;106756;1275;22510;-75
2023/06/10 02:26:32;;;;;;;6.20;2.30;;;;;;;13.77;93.24;95257.70;106719;1275;22526;-74
2023/06/10 02:29:00;;;;;;;5.70;2.20;;;;;;;13.71;93.44;95257.04;106659;1275;22544;-74
2023/06/10 02:31:29;;;;;;;7.10;2.00;;;;;;;13.71;93.94;95256.84;106673;1275;25258;-74
2023/06/10 02:33:57;;;;;;;3.20;2.40;;;;;;;13.75;93.65;95252.13;106816;1275;24224;-74
2023/06/10 02:36:28;;;;;;;3.80;1.90;;;;;;;13.70;93.31;95260.08;106697;1275;22524;-74
2023/06/10 02:38:56;;;;;;;4.50;2.30;;;;;;;13.67;93.30;95259.48;106742;1275;24250;-74
2023/06/10 02:41:26;;;;;;;6.20;1.90;;;;;;;13.73;94.22;95258.02;106752;1275;23018;-74
2023/06/10 02:43:54;;;;;;;2.60;1.80;;;;;;;13.81;93.98;95250.67;106686;1275;22539;-74
2023/06/10 02:46:23;;;;;;;6.50;2.00;;;;;;;13.76;93.00;95250.30;106768;1275;24196;-74
2023/06/10 02:48:53;;;;;;;4.50;1.90;;;;;;;13.70;93.22;95258.98;106637;1275;22521;-74
2023/06/10 02:51:23;;;;;;;6.40;2.20;;;;;;;13.68;93.19;95257.48;106734;1275;25961;-74
2023/06/10 02:53:56;;;;;;;4.10;2.40;;;;;;;13.69;93.37;95259.23;106768;1275;22516;-74
2023/06/10 02:56:25;;;;;;;3.30;2.20;;;;;;;13.73;93.91;95257.85;106729;1264;22737;-74
2023/06/10 02:58:55;;;;;;;11.20;2.70;;;;;;;13.69;92.77;95263.45;106752;1275;24319;-73
2023/06/10 03:01:24;;;;;;;4.60;2.40;;;;;;;13.61;92.56;95264.27;106733;1275;22637;-75
2023/06/10 03:04:00;;;;;;;5.10;2.10;;;;;;;13.60;92.94;95265.55;106716;1275;22511;-74
2023/06/10 03:06:29;;;;;;;5.10;2.20;;;;;;;13.54;92.24;95267.00;106719;1275;25387;-74
2023/06/10 03:09:05;;;;;;;5.10;2.40;;;;;;;13.44;92.28;95265.92;106614;1275;22516;-75
2023/06/10 03:11:33;;;;;;;9.30;2.50;;;;;;;13.38;92.65;95263.84;106585;1273;22521;-74
2023/06/10 03:14:02;;;;;;;3.00;2.70;;;;;;;13.32;92.64;95265.45;106793;1275;25331;-74
2023/06/10 03:16:31;;;;;;;3.40;2.00;;;;;;;13.30;92.70;95269.60;106668;1275;22530;-74
2023/06/10 03:19:00;;;;;;;5.20;2.50;;;;;;;13.25;92.86;95271.35;106679;1275;25363;-74
2023/06/10 03:21:29;;;;;;;6.20;2.40;;;;;;;13.21;92.86;95271.10;106714;1275;22522;-74
2023/06/10 03:23:58;;;;;;;8.50;3.20;;;;;;;13.21;92.83;95269.34;106739;1275;22511;-74
2023/06/10 03:26:27;;;;;;;3.50;2.00;;;;;;;13.24;93.23;95272.06;106598;1275;25371;-74
2023/06/10 03:28:56;;;;;;;3.90;2.10;;;;;;;13.26;93.69;95273.42;106738;1275;22630;-75
2023/06/10 03:31:24;;;;;;;5.90;2.50;;;;;;;13.23;94.17;95274.73;106688;1275;22549;-74
2023/06/10 03:33:53;;;;;;;6.80;2.60;;;;;;;13.22;94.59;95273.55;106675;1275;24832;-74
2023/06/10 03:36:21;;;;;;;5.20;2.00;;;;;;;13.24;94.89;95272.63;106597;1275;22515;-74
2023/06/10 03:38:51;;;;;;;2.60;2.20;;;;;;;13.25;94.38;95272.58;106527;1275;22530;-75
2023/06/10 03:41:21;;;;;;;2.90;2.00;;;;;;;13.21;94.42;95273.03;106617;1275;24362;-74
2023/06/10 03:43:50;;;;;;;11.80;2.00;;;;;;;13.20;94.10;95271.31;106772;1275;22513;-74
2023/06/10 03:46:19;;;;;;;3.20;2.00;;;;;;;13.24;94.83;95272.98;106666;1275;22524;-75
2023/06/10 03:48:48;;;;;;;3.90;2.20;;;;;;;13.32;95.03;95272.70;106560;1275;22529;-74
2023/06/10 03:51:16;;;;;;;4.10;2.10;;;;;;;13.37;94.58;95271.80;106702;1275;26564;-74
2023/06/10 03:53:44;;;;;;;5.70;1.90;;;;;;;13.38;93.91;95274.95;106697;1275;25214;-74
2023/06/10 03:56:13;;;;;;;5.90;2.20;;;;;;;13.33;93.37;95273.37;106568;1275;24246;-75
2023/06/10 03:58:41;;;;;;;5.00;2.00;;;;;;;13.29;93.71;95274.05;106625;1275;22637;-74
2023/06/10 04:01:17;;;;;;;6.70;2.50;;;;;;;13.29;94.10;95272.63;106518;1275;25315;-75
2023/06/10 04:03:48;;;;;;;;;;;;;;;13.39;94.97;95273.33;106629;1275;24173;-75
2023/06/10 04:06:16;;;;;;;4.90;2.40;;;;;;;13.42;94.58;95275.52;106700;1275;23899;-74
2023/06/10 04:08:44;;;;;;;4.40;2.50;;;;;;;13.54;95.20;95277.08;106706;1275;22523;-75
2023/06/10 04:11:12;;;;;;;5.70;2.60;;;;;;;13.64;94.45;95278.12;106781;1275;22646;-74
2023/06/10 04:13:41;;;;;;;4.40;2.40;;;;;;;13.62;93.57;95277.11;106629;1275;22550;-74
2023/06/10 04:16:09;;;;;;;2.80;2.50;;;;;;;13.62;93.86;95275.02;106563;1275;22526;-74
2023/06/10 04:18:37;;;;;;;2.70;2.50;;;;;;;13.67;94.13;95281.36;106588;1275;23878;-74
2023/06/10 04:21:06;;;;;;;3.70;2.70;;;;;;;13.69;93.68;95281.48;106721;1275;22524;-74
2023/06/10 04:23:37;;;;;;;3.90;2.90;;;;;;;13.74;94.12;95283.96;106569;1275;22517;-75
2023/06/10 04:26:07;;;;;;;4.70;3.90;;;;;;;13.75;93.19;95280.20;106611;1275;24888;-75
2023/06/10 04:28:36;;;;;;;3.50;3.00;;;;;;;13.69;92.71;95284.48;106641;1275;22665;-74
2023/06/10 04:31:04;;;;;;;4.10;2.80;;;;;;;13.63;92.65;95285.91;106970;1274;22535;-74
2023/06/10 04:33:33;;;;;;;6.10;2.50;;;;;;;13.60;93.25;95284.63;106819;1275;22986;-74
2023/06/10 04:36:02;;;;;;;3.60;2.90;;;;;;;13.64;93.85;95289.29;106722;1275;22556;-75
2023/06/10 04:38:31;;;;;;;3.10;2.80;;;;;;;13.77;94.85;95287.91;106762;1275;25398;-75
2023/06/10 04:40:59;;;;;;;2.90;2.50;;;;;;;13.85;94.21;95288.13;106660;1275;25745;-74
2023/06/10 04:43:30;;;;;;;3.80;2.70;;;;;;;13.93;94.24;95288.75;106671;1275;22602;-74
2023/06/10 04:45:59;;;;;;;3.60;2.70;;;;;;;13.92;93.12;95289.48;106626;1275;22645;-74
2023/06/10 04:48:28;;;;;;;5.20;2.70;;;;;;;13.87;92.54;95288.96;106671;1275;22529;-74
2023/06/10 04:50:57;;;;;;;3.60;2.60;;;;;;;13.84;92.78;95287.85;106778;1275;25265;-74
2023/06/10 04:53:26;;;;;;;3.20;2.90;;;;;;;13.90;93.79;95284.42;106669;1275;22513;-74
2023/06/10 04:55:54;;;;;;;5.50;3.00;;;;;;;14.10;94.94;95284.25;106670;1275;24242;-74
2023/06/10 04:58:23;;;;;;;6.90;2.90;;;;;;;14.27;94.85;95281.99;106670;1275;22545;-75
2023/06/10 05:00:51;;;;;;;5.80;2.80;;;;;;;14.45;94.59;95278.83;106735;1275;25281;-75
2023/06/10 05:03:20;;;;;;;4.40;2.70;;;;;;;14.55;93.41;95280.95;106716;1275;22539;-75
2023/06/10 05:05:48;;;;;;;5.20;3.10;;;;;;;14.59;92.56;95280.45;106943;1275;25229;-75
2023/06/10 05:08:18;;;;;;;4.50;2.90;;;;;;;14.72;93.11;95280.09;106678;1275;22548;-75
2023/06/10 05:10:46;;;;;;;3.50;3.00;;;;;;;14.83;92.94;95275.80;106866;1275;22649;-76
2023/06/10 05:13:16;;;;;;;4.20;3.70;;;;;;;14.95;93.10;95277.60;106712;1275;24243;-75
2023/06/10 05:15:46;;;;;;;4.10;3.30;;;;;;;15.03;92.63;95273.35;106794;1275;22806;-75
2023/06/10 05:18:14;;;;;;;3.70;3.20;;;;;;;15.16;92.77;95269.63;106680;1275;22525;-75
2023/06/10 05:20:42;;;;;;;3.60;2.80;;;;;;;15.23;91.31;95274.51;106692;1275;22628;-76
2023/06/10 05:23:11;;;;;;;4.00;3.00;;;;;;;15.26;91.07;95272.06;106680;1275;22519;-76
2023/06/10 05:25:39;;;;;;;7.50;3.20;;;;;;;15.37;92.03;95269.48;106681;1275;22534;-75
2023/06/10 05:28:10;;;;;;;4.00;3.20;;;;;;;15.52;92.15;95269.20;106568;1275;23904;-75
2023/06/10 05:30:41;;;;;;;4.00;3.00;;;;;;;15.64;92.01;95272.91;106699;1275;22625;-75
2023/06/10 05:33:09;;;;;;;6.70;3.10;;;;;;;15.78;91.47;95272.16;106734;1275;22522;-75
2023/06/10 05:35:38;;;;;;;4.90;3.30;;;;;;;15.91;91.73;95268.74;106781;1275;22524;-75
2023/06/10 05:38:06;;;;;;;3.90;3.30;;;;;;;16.02;91.47;95270.41;106778;1275;22527;-74
2023/06/10 05:40:34;;;;;;;4.10;3.10;;;;;;;16.11;91.16;95269.29;106672;1275;22640;-75
2023/06/10 05:43:03;;;;;;;4.30;3.50;;;;;;;16.13;90.29;95266.01;106672;1275;22509;-75
2023/06/10 05:45:31;;;;;;;7.90;3.40;;;;;;;16.18;90.28;95269.85;106641;1275;23887;-75
2023/06/10 05:47:59;;;;;;;4.80;3.20;;;;;;;16.24;89.99;95268.14;106718;1275;22790;-75
2023/06/10 05:50:28;;;;;;;3.50;2.90;;;;;;;16.30;89.69;95265.93;106746;1275;22659;-75
2023/06/10 05:52:57;;;;;;;6.40;3.40;;;;;;;16.38;89.49;95262.68;106736;1275;22637;-75
2023/06/10 05:55:25;;;;;;;6.10;3.60;;;;;;;16.52;90.12;95260.65;106660;1275;22727;-75
2023/06/10 05:58:00;;;;;;;4.30;3.70;;;;;;;16.63;89.35;95261.69;106674;1275;22520;-75
2023/06/10 06:00:28;;;;;;;3.10;2.80;;;;;;;16.75;89.66;95263.45;106698;1275;22533;-75
2023/06/10 06:02:58;;;;;;;4.10;3.00;;;;;;;16.89;89.04;95265.66;106662;1275;22517;-75
2023/06/10 06:05:27;;;;;;;3.50;2.50;;;;;;;17.00;88.70;95267.38;106692;1275;22520;-74
2023/06/10 06:07:55;;;;;;;2.60;2.40;;;;;;;17.14;88.62;95262.30;106739;1275;22521;-75
2023/06/10 06:10:23;;;;;;;4.30;2.20;;;;;;;17.31;88.15;95267.30;106731;1275;25337;-76
2023/06/10 06:12:52;;;;;;;5.60;2.40;;;;;;;17.45;86.18;95265.86;106750;1275;22513;-76
2023/06/10 06:15:20;;;;;;;3.60;2.40;;;;;;;17.59;85.55;95269.44;106747;1275;22521;-75
2023/06/10 06:17:49;;;;;;;4.30;2.70;;;;;;;17.76;86.18;95269.99;106662;1275;22517;-75
2023/06/10 06:20:17;;;;;;;2.70;2.50;;;;;;;17.93;85.92;95267.52;106721;1275;24195;-74
2023/06/10 06:22:47;;;;;;;2.70;2.50;;;;;;;18.07;84.56;95262.70;106636;1263;22538;-75
2023/06/10 06:25:15;;;;;;;2.60;2.40;;;;;;;18.22;84.41;95261.91;106628;1275;24381;-75
2023/06/10 06:27:44;;;;;;;4.60;2.60;;;;;;;18.37;83.86;95258.56;106660;1275;22514;-76
2023/06/10 06:30:12;;;;;;;4.90;2.70;;;;;;;18.49;82.13;95256.66;106706;1275;22811;-75
2023/06/10 06:32:40;;;;;;;4.40;2.80;;;;;;;18.62;80.11;95254.56;106739;1275;22482;-76
2023/06/10 06:35:09;;;;;;;3.50;2.90;;;;;;;18.77;81.38;95261.02;106658;1266;22545;-75
2023/06/10 06:37:38;;;;;;;3.20;2.90;;;;;;;18.90;80.29;95266.38;106750;1275;24061;-75
2023/06/10 06:40:15;;;;;;;4.00;3.30;;;;;;;18.89;79.41;95264.10;106695;1275;24367;-75
2023/06/10 06:42:44;;;;;;;3.20;2.90;;;;;;;18.87;79.95;95262.24;106757;1275;24251;-75
2023/06/10 06:45:39;;;;;;;3.60;3.30;;;;;;;18.92;80.51;95262.31;106591;1275;22640;-73
2023/06/10 06:48:07;;;;;;;6.10;3.40;;;;;;;19.01;79.94;95263.82;107015;1275;22628;-74
2023/06/10 06:50:36;;;;;;;3.40;3.00;;;;;;;18.99;77.75;95264.77;107044;1275;25530;-74
2023/06/10 06:53:05;;;;;;;4.00;3.00;;;;;;;18.98;77.85;95263.74;106876;1275;25213;-74
2023/06/10 06:55:33;;;;;;;3.10;2.80;;;;;;;18.98;76.74;95261.66;106795;1275;22520;-73
2023/06/10 06:58:03;;;;;;;3.50;3.00;;;;;;;18.91;75.93;95260.95;106718;1275;22562;-73
2023/06/10 07:00:32;;;;;;;4.70;3.10;;;;;;;18.98;77.38;95260.93;106973;1275;25210;-73
2023/06/10 07:03:00;;;;;;;3.40;3.00;;;;;;;19.11;76.47;95259.48;107071;1275;23878;-74
2023/06/10 07:05:30;;;;;;;3.40;2.40;;;;;;;19.24;75.71;95262.48;106872;1275;22534;-73
2023/06/10 07:07:59;;;;;;;3.50;2.80;;;;;;;19.28;74.60;95261.36;106715;1275;22673;-73
2023/06/10 07:10:28;;;;;;;3.00;2.70;;;;;;;19.32;75.40;95263.08;106672;1275;22656;-74
2023/06/10 07:12:56;;;;;;;3.20;2.90;;;;;;;19.40;74.43;95262.62;106679;1275;24253;-73
2023/06/10 07:15:24;;;;;;;3.40;2.70;;;;;;;19.50;73.29;95258.63;106813;1275;25370;-68
2023/06/10 07:17:53;;;;;;;4.30;2.60;;;;;;;19.64;74.07;95255.84;106536;1275;22520;-74
2023/06/10 07:20:21;;;;;;;4.40;2.70;;;;;;;19.76;73.46;95255.87;106687;1275;25344;-74
2023/06/10 07:22:49;;;;;;;4.30;2.90;;;;;;;19.87;72.90;95253.25;106683;1275;25310;-74
2023/06/10 07:25:17;;;;;;;3.10;2.80;;;;;;;19.84;71.66;95250.36;106676;1275;25504;-74
2023/06/10 07:27:46;;;;;;;4.20;3.10;;;;;;;19.83;72.14;95245.07;106666;1275;22524;-74
2023/06/10 07:30:14;;;;;;;3.80;2.40;;;;;;;19.83;71.85;95246.19;106677;1275;22581;-73
2023/06/10 07:32:43;;;;;;;3.70;2.60;;;;;;;19.86;71.70;95244.73;106729;1275;22573;-74
2023/06/10 07:35:12;;;;;;;5.40;3.50;;;;;;;19.98;72.52;95241.52;106760;1275;24364;-74
2023/06/10 07:37:40;;;;;;;3.40;2.50;;;;;;;20.12;71.66;95245.29;106620;1275;22788;-74
2023/06/10 07:40:09;;;;;;;4.00;3.20;;;;;;;20.23;71.49;95243.14;106627;1275;22517;-74
2023/06/10 07:42:38;;;;;;;2.70;2.40;;;;;;;20.34;70.70;95243.77;107049;1275;22696;-74
2023/06/10 07:45:07;;;;;;;3.10;2.80;;;;;;;20.47;69.90;95245.77;106951;1275;24025;-74
2023/06/10 07:47:35;;;;;;;3.30;2.90;;;;;;;20.55;68.14;95249.23;107013;1275;25349;-75
2023/06/10 07:50:04;;;;;;;3.90;2.70;;;;;;;20.62;67.80;95251.09;106736;1275;24383;-75
2023/06/10 07:52:32;;;;;;;5.20;2.60;;;;;;;20.71;68.88;95255.91;106655;1275;25350;-76
2023/06/10 07:55:01;;;;;;;3.40;2.80;;;;;;;20.81;67.88;95257.63;106751;1275;22582;-76
2023/06/10 07:57:31;;;;;;;2.80;2.50;;;;;;;20.85;66.09;95259.84;106764;1275;24196;-76
2023/06/10 08:00:00;;;;;;;3.20;2.50;;;;;;;20.91;66.34;95257.66;106729;1275;24232;-76
2023/06/10 08:02:28;;;;;;;4.50;2.70;;;;;;;21.00;66.48;95258.16;106750;1275;24470;-75
2023/06/10 08:04:56;;;;;;;2.70;2.50;;;;;;;21.14;65.73;95258.30;106676;1275;24267;-76
2023/06/10 08:07:25;;;;;;;4.70;2.60;;;;;;;21.26;64.69;95258.64;106830;1275;24317;-76
2023/06/10 08:09:53;;;;;;;4.00;2.60;;;;;;;21.35;63.84;95256.36;106762;1275;22533;-76
2023/06/10 08:12:21;;;;;;;3.70;2.80;;;;;;;21.52;65.09;95255.80;106674;1275;25629;-75
2023/06/10 08:14:49;;;;;;;3.00;2.60;;;;;;;21.70;63.81;95254.98;106673;1275;22580;-75
2023/06/10 08:17:18;;;;;;;3.90;2.40;;;;;;;21.80;62.99;95254.29;106693;1275;24220;-75
2023/06/10 08:19:46;;;;;;;2.70;2.50;;;;;;;21.90;63.75;95248.91;106672;1275;24253;-75
2023/06/10 08:22:14;;;;;;;2.90;2.60;;;;;;;21.99;63.22;95238.79;106708;1275;25639;-75
2023/06/10 08:24:43;;;;;;;2.50;2.30;;;;;;;22.00;61.64;95236.99;106723;1275;22662;-75
2023/06/10 08:27:14;;;;;;;2.70;2.40;;;;;;;21.99;62.78;95241.31;106666;1275;25268;-75
2023/06/10 08:29:42;;;;;;;4.60;2.50;;;;;;;22.00;62.10;95239.99;106688;1275;22656;-75
2023/06/10 08:32:11;;;;;;;4.60;2.50;;;;;;;22.11;62.87;95239.81;106736;1275;22516;-75
2023/06/10 08:34:39;;;;;;;2.60;2.40;;;;;;;22.22;61.23;95233.48;106677;1275;24392;-75
2023/06/10 08:37:07;;;;;;;3.60;2.30;;;;;;;22.30;58.96;95232.24;106600;1275;26484;-76
2023/06/10 08:39:35;;;;;;;2.90;2.60;;;;;;;22.37;59.82;95225.66;106946;1275;22635;-75
2023/06/10 08:42:10;;;;;;;2.90;2.40;;;;;;;22.53;61.11;95226.30;106725;1254;22555;-75
2023/06/10 08:44:40;;;;;;;2.80;2.60;;;;;;;22.67;59.66;95224.54;106729;1275;22514;-75
2023/06/10 08:47:16;;;;;;;2.40;2.20;;;;;;;22.87;59.05;95226.28;106684;1275;24254;-75
2023/06/10 08:49:47;;;;;;;4.40;2.60;;;;;;;23.01;58.52;95224.10;106668;1275;25255;-75
2023/06/10 08:52:19;;;;;;;2.70;2.50;;;;;;;23.16;58.81;95224.43;106737;1275;24198;-76
2023/06/10 08:54:48;;;;;;;3.70;2.80;;;;;;;23.29;58.89;95215.94;106750;1275;24054;-75
2023/06/10 08:57:20;;;;;;;3.40;2.60;;;;;;;23.38;57.24;95215.10;106702;1275;24054;-75
2023/06/10 08:59:49;;;;;;;3.40;2.60;;;;;;;23.46;56.97;95211.41;106755;1275;25337;-75
2023/06/10 09:02:20;;;;;;;2.70;2.30;;;;;;;23.48;56.99;95213.92;106810;1275;25337;-75
2023/06/10 09:04:49;;;;;;;2.50;2.30;;;;;;;23.34;58.08;95213.90;106637;1275;22782;-75
2023/06/10 09:07:18;;;;;;;4.10;2.70;;;;;;;23.19;58.20;95212.89;106726;1275;25334;-75
2023/06/10 09:09:49;;;;;;;4.90;2.60;;;;;;;22.97;57.55;95214.14;106808;1275;22527;-74
2023/06/10 09:12:17;;;;;;;3.10;2.80;;;;;;;22.56;58.18;95211.92;106776;1275;25271;-74
2023/06/10 09:14:46;;;;;;;3.90;2.90;;;;;;;22.20;57.90;95209.11;106675;1275;22530;-75
2023/06/10 09:17:16;;;;;;;5.30;3.10;;;;;;;21.91;60.36;95209.13;106670;1275;22524;-74
2023/06/10 09:19:46;;;;;;;2.90;2.70;;;;;;;21.70;62.00;95208.22;106735;1275;22513;-74
2023/06/10 09:22:15;;;;;;;3.50;2.50;;;;;;;21.49;62.54;95214.66;106768;1275;22652;-75
2023/06/10 09:24:43;;;;;;;4.10;2.80;;;;;;;21.24;62.50;95213.47;106673;1275;24220;-74
2023/06/10 09:27:11;;;;;;;4.10;3.00;;;;;;;21.04;62.57;95217.29;106675;1275;22609;-74
2023/06/10 09:29:48;;;;;;;4.90;2.80;;;;;;;20.90;63.64;95210.69;106558;1275;22845;-75
2023/06/10 09:32:18;;;;;;;3.00;2.60;;;;;;;20.77;64.62;95201.95;106715;1274;22516;-74
2023/06/10 09:34:48;;;;;;;4.20;2.80;;;;;;;20.64;64.50;95203.47;106754;1275;22513;-74
2023/06/10 09:37:21;;;;;;;4.70;2.70;;;;;;;20.51;65.36;95208.92;106998;1268;22638;-75
2023/06/10 09:40:03;;;;;;;3.50;2.60;;;;;;;20.44;66.11;95211.88;106801;1259;22560;-75
2023/06/10 09:42:35;;;;;;;3.50;2.50;;;;;;;20.40;66.23;95217.81;106684;1275;22683;-75
2023/06/10 09:45:06;;;;;;;3.20;2.80;;;;;;;20.32;65.72;95228.33;106678;1275;22594;-75
2023/06/10 09:47:34;;;;;;;4.10;2.70;;;;;;;20.20;66.15;95231.78;106679;1275;22503;-75
2023/06/10 09:50:03;;;;;;;5.20;3.10;;;;;;;20.08;68.35;95232.84;106916;1275;22531;-75
2023/06/10 09:52:34;;;;;;;3.20;2.90;;;;;;;20.00;68.64;95228.55;107043;1275;23922;-75
2023/06/10 09:55:03;;;;;;;4.30;3.20;;;;;;;19.95;69.65;95228.27;106832;1275;22521;-75
2023/06/10 09:57:35;;;;;;;4.70;3.00;;;;;;;19.86;70.94;95233.80;106857;1260;22543;-75
2023/06/10 10:00:08;;;;;;;;;;;;;;;19.70;70.68;95240.02;107075;1275;22495;-75
2023/06/10 10:02:50;;;;;;;4.60;2.80;;;;;;;19.56;70.84;95242.56;107011;1275;22668;-75
2023/06/10 10:05:20;;;;;;;4.40;3.10;;;;;;;19.51;71.13;95238.22;106866;1275;22511;-75
2023/06/10 10:07:49;;;;;;;3.10;2.80;;;;;;;19.46;70.41;95238.89;106698;1275;25518;-75
2023/06/10 10:10:20;;;;;;;3.20;2.70;;;;;;;19.41;70.11;95239.02;106735;1275;22513;-75
2023/06/10 10:12:55;;;;;;;3.60;2.50;;;;;;;19.39;69.94;95238.42;106764;1275;23872;-75
2023/06/10 10:15:29;;;;;;;3.00;2.60;;;;;;;19.29;70.19;95234.50;106702;1272;22520;-75
2023/06/10 10:18:04;;;;;;;3.60;2.60;;;;;;;19.31;70.89;95236.02;106631;1275;22516;-75
2023/06/10 10:20:34;;;;;;;3.40;2.40;;;;;;;19.30;71.30;95237.89;106696;1275;22573;-74
2023/06/10 10:23:04;;;;;;;4.10;3.00;;;;;;;19.18;71.60;95235.00;106707;1275;22906;-74
2023/06/10 10:25:40;;;;;;;3.30;2.90;;;;;;;19.11;71.61;95231.84;106713;1275;22556;-74
2023/06/10 10:28:12;;;;;;;3.30;2.90;;;;;;;19.05;72.39;95227.19;106717;1275;22545;-74
2023/06/10 10:30:43;;;;;;;3.70;2.70;;;;;;;19.06;72.52;95225.91;106704;1275;22511;-74
2023/06/10 10:33:14;;;;;;;4.00;2.70;;;;;;;19.07;72.10;95225.65;106706;1275;26669;-74
2023/06/10 10:35:43;;;;;;;5.40;3.30;;;;;;;19.03;71.55;95225.91;106694;1275;22533;-75
2023/06/10 10:38:12;;;;;;;3.90;3.10;;;;;;;18.95;71.93;95224.73;106985;1275;25278;-74
2023/06/10 10:40:41;;;;;;;4.90;3.60;;;;;;;18.92;72.06;95227.09;106797;1254;22523;-74
2023/06/10 10:43:11;;;;;;;4.10;2.90;;;;;;;18.91;71.86;95227.64;106765;1275;24206;-74
2023/06/10 10:45:39;;;;;;;2.80;2.30;;;;;;;18.93;70.78;95230.38;106708;1275;22516;-74
2023/06/10 10:48:12;;;;;;;3.30;2.70;;;;;;;18.96;70.89;95228.60;106635;1275;22529;-74
2023/06/10 10:50:40;;;;;;;2.90;2.60;;;;;;;19.06;70.89;95223.42;106772;1275;22513;-74
2023/06/10 10:53:09;;;;;;;4.10;2.60;;;;;;;19.13;69.58;95218.20;106825;1275;22513;-75
2023/06/10 10:55:37;;;;;;;3.00;2.30;;;;;;;19.16;69.01;95214.59;106732;1275;22523;-74
2023/06/10 10:58:08;;;;;;;2.60;2.40;;;;;;;19.21;69.81;95209.46;106639;1275;24175;-74
2023/06/10 11:00:38;;;;;;;3.10;2.20;;;;;;;19.27;69.64;95204.90;106784;1275;23876;-74
2023/06/10 11:03:07;;;;;;;3.00;2.80;;;;;;;19.40;71.01;95202.33;106746;1275;25318;-74
2023/06/10 11:05:41;;;;;;;;;;;;;;;19.59;71.11;95197.07;106756;1275;25318;-74
2023/06/10 11:08:11;;;;;;;4.70;2.20;;;;;;;19.85;71.23;95196.58;107021;1275;25644;-74
2023/06/10 11:10:54;;;;;;;3.30;2.70;;;;;;;20.12;67.10;95189.60;107036;1275;23185;-74
2023/06/10 11:13:23;;;;;;;2.40;2.10;;;;;;;20.63;66.20;95190.45;106750;1263;24183;-75
2023/06/10 11:15:56;;;;;;;2.50;2.30;;;;;;;21.15;61.30;95182.77;106681;1275;22528;-75
2023/06/10 11:18:53;;;;;;;3.10;2.30;;;;;;;21.69;61.10;95170.20;106648;1275;25227;-76
2023/06/10 11:21:25;;;;;;;3.60;2.50;;;;;;;22.04;57.89;95165.27;106711;1275;22517;-76
2023/06/10 11:23:58;;;;;;;2.90;2.30;;;;;;;22.18;59.66;95165.47;106684;1275;25465;-76
2023/06/10 11:26:34;;;;;;;3.40;2.90;;;;;;;22.40;59.68;95158.17;106808;1253;22516;-75
2023/06/10 11:29:05;;;;;;;2.90;2.40;;;;;;;22.75;58.75;95155.31;106707;1275;22536;-74
2023/06/10 11:31:40;;;;;;;3.10;2.50;;;;;;;22.73;55.83;95153.52;106651;1275;24371;-74
2023/06/10 11:34:09;;;;;;;2.70;2.20;;;;;;;22.69;57.89;95148.59;106669;1275;23874;-75
2023/06/10 11:36:40;;;;;;;2.50;2.20;;;;;;;22.76;59.14;95148.95;106747;1275;24208;-75
2023/06/10 11:39:10;;;;;;;3.60;2.50;;;;;;;22.68;56.06;95142.91;106731;1263;25399;-74